Faust — SLKQ — position and weather

sailwx.info

Track history (hours):
 
Tides and Currents Weather Stations Pressure Air Temp Water Temp Dewpoint Dewpoint Depression Visibility Wind Speed Wind Dir Waves Ship Positions

Faust

Last reported at 2017-Feb-19 12:00 UTC. Time now 2017-Feb-19 21:09 UTC.
Position N 38°30' W 061°42'.

Length 227.8 m; beam 32.3 m; draft 9.5 m.

Type: Cargo ship. MMSI: 266260000.

Wind from 240 at 28 knots

Barometer 1011.4 mb
Visibility: greater than 10.8 NM
Water temperature 19.2 ° C

Date/timePositionNaut miles runAvg speedWind from/ knotsBaromVisibWave heightAir tempDewpointWater temp
2017-Feb-19 12:00N 38°30' W 061°42'21818.1 240 / 281011.410.8 19.2
2017-Feb-19 00:00N 36°36' W 065°36'11118.5 240 / 181014.610.8 20.0
2017-Feb-18 18:00N 35°42' W 067°36'   250 / 141014.510.8 16.0 21.0
2017-Feb-15 05:23N 31°15' W 080°32'1214.0
2017-Feb-15 04:33N 31°22' W 080°22'26114.5
2017-Feb-14 10:34N 34°12' W 076°25'1817.8
2017-Feb-14 09:33N 34°23' W 076°09'32216.9
2017-Feb-13 14:33N 39°28' W 073°58'1717.2
2017-Feb-13 13:31N 39°44' W 073°52'2316.4
2017-Feb-13 12:06N 40°08' W 073°50'610.8
2017-Feb-13 11:33N 40°14' W 073°49'10 9.9
2017-Feb-13 10:33N 40°24' W 073°48'8 8.2
2017-Feb-13 09:33N 40°29' W 073°56'1212.4
2017-Feb-13 08:33N 40°39' W 074°06'3 3.1
2017-Feb-13 07:33N 40°42' W 074°08'0 0.3
2017-Feb-13 06:33N 40°42' W 074°09'0 0.0
2017-Feb-13 05:33N 40°42' W 074°09'0 0.0
2017-Feb-13 04:33N 40°42' W 074°09'0 0.0
2017-Feb-13 03:33N 40°42' W 074°09'0 0.0
2017-Feb-13 02:33N 40°42' W 074°09'0 0.0
2017-Feb-13 01:33N 40°42' W 074°09'0 0.0
2017-Feb-13 00:33N 40°42' W 074°09'0 0.0
2017-Feb-12 23:33N 40°42' W 074°09'2 1.6
2017-Feb-12 22:33N 40°40' W 074°08'4 3.7
2017-Feb-12 21:33N 40°39' W 074°03'1 0.9
2017-Feb-12 20:32N 40°40' W 074°04'0 0.0
2017-Feb-12 19:33N 40°40' W 074°04'0 0.0
2017-Feb-12 18:33N 40°40' W 074°04'0 0.0
2017-Feb-12 17:33N 40°40' W 074°04'0 0.0
2017-Feb-12 16:33N 40°40' W 074°04'0 0.0
2017-Feb-12 15:33N 40°40' W 074°04'0 0.0
2017-Feb-12 14:33N 40°40' W 074°04'0 0.0
2017-Feb-12 13:33N 40°40' W 074°04'0 0.0
2017-Feb-12 12:33N 40°40' W 074°04'0 0.0
2017-Feb-12 11:33N 40°40' W 074°04'10 9.8
2017-Feb-12 10:34N 40°31' W 073°59'1010.3
2017-Feb-12 09:33N 40°26' W 073°47'9 8.4
2017-Feb-12 08:32N 40°28' W 073°36'  
Track history (hours):
 
Tides and Currents Weather Stations Pressure Air Temp Water Temp Dewpoint Dewpoint Depression Visibility Wind Speed Wind Dir Waves Ship Positions

Faust

Last reported at 2017-Feb-19 12:00 UTC. Time now 2017-Feb-19 21:09 UTC.
Position N 38°30' W 061°42'.

Length 227.8 m; beam 32.3 m; draft 9.5 m.

Type: Cargo ship. MMSI: 266260000.

Wind from 240 at 28 knots

Barometer 1011.4 mb
Visibility: greater than 10.8 NM
Water temperature 19.2 ° C

Date/timePositionNaut miles runAvg speedWind from/ knotsBaromVisibWave heightAir tempDewpointWater temp
2017-Feb-19 12:00N 38°30' W 061°42'21818.1 240 / 281011.410.8 19.2
2017-Feb-19 00:00N 36°36' W 065°36'11118.5 240 / 181014.610.8 20.0
2017-Feb-18 18:00N 35°42' W 067°36'   250 / 141014.510.8 16.0 21.0
2017-Feb-15 05:23N 31°15' W 080°32'1214.0
2017-Feb-15 04:33N 31°22' W 080°22'26114.5
2017-Feb-14 10:34N 34°12' W 076°25'1817.8
2017-Feb-14 09:33N 34°23' W 076°09'32216.9
2017-Feb-13 14:33N 39°28' W 073°58'1717.2
2017-Feb-13 13:31N 39°44' W 073°52'2316.4
2017-Feb-13 12:06N 40°08' W 073°50'610.8
2017-Feb-13 11:33N 40°14' W 073°49'10 9.9
2017-Feb-13 10:33N 40°24' W 073°48'8 8.2
2017-Feb-13 09:33N 40°29' W 073°56'1212.4
2017-Feb-13 08:33N 40°39' W 074°06'3 3.1
2017-Feb-13 07:33N 40°42' W 074°08'0 0.3
2017-Feb-13 06:33N 40°42' W 074°09'0 0.0
2017-Feb-13 05:33N 40°42' W 074°09'0 0.0
2017-Feb-13 04:33N 40°42' W 074°09'0 0.0
2017-Feb-13 03:33N 40°42' W 074°09'0 0.0
2017-Feb-13 02:33N 40°42' W 074°09'0 0.0
2017-Feb-13 01:33N 40°42' W 074°09'0 0.0
2017-Feb-13 00:33N 40°42' W 074°09'0 0.0
2017-Feb-12 23:33N 40°42' W 074°09'2 1.6
2017-Feb-12 22:33N 40°40' W 074°08'4 3.7
2017-Feb-12 21:33N 40°39' W 074°03'1 0.9
2017-Feb-12 20:32N 40°40' W 074°04'0 0.0
2017-Feb-12 19:33N 40°40' W 074°04'0 0.0
2017-Feb-12 18:33N 40°40' W 074°04'0 0.0
2017-Feb-12 17:33N 40°40' W 074°04'0 0.0
2017-Feb-12 16:33N 40°40' W 074°04'0 0.0
2017-Feb-12 15:33N 40°40' W 074°04'0 0.0
2017-Feb-12 14:33N 40°40' W 074°04'0 0.0
2017-Feb-12 13:33N 40°40' W 074°04'0 0.0
2017-Feb-12 12:33N 40°40' W 074°04'0 0.0
2017-Feb-12 11:33N 40°40' W 074°04'10 9.8
2017-Feb-12 10:34N 40°31' W 073°59'1010.3
2017-Feb-12 09:33N 40°26' W 073°47'9 8.4
2017-Feb-12 08:32N 40°28' W 073°36'  

Dump ship's entire track history